createdAt,value
2022-12-28T05:00:45.408Z,605.70
2022-12-28T05:05:39.432Z,606.50
2022-12-28T05:08:06.078Z,603.40
2022-12-28T05:10:32.775Z,607.55
2022-12-28T05:12:59.373Z,599.00
2022-12-28T05:17:54.258Z,586.50
2022-12-28T05:32:34.333Z,591.20
2022-12-28T05:39:54.043Z,588.50
2022-12-28T05:44:47.275Z,583.60
2022-12-28T05:49:40.510Z,575.35
2022-12-28T05:52:07.142Z,585.30
2022-12-28T06:01:53.624Z,573.80
2022-12-28T06:09:15.425Z,566.10
2022-12-28T06:14:09.280Z,570.70
2022-12-28T06:21:33.621Z,559.00
2022-12-28T06:26:29.586Z,561.50
2022-12-28T06:28:56.608Z,561.30
2022-12-28T06:31:25.913Z,550.20
2022-12-28T06:33:54.137Z,539.60
2022-12-28T06:36:23.485Z,548.40
2022-12-28T06:38:51.540Z,548.70
2022-12-28T06:41:20.384Z,550.30
2022-12-28T06:48:42.188Z,549.90
2022-12-28T06:51:18.843Z,555.00
2022-12-28T06:56:24.462Z,546.90
2022-12-28T07:16:18.321Z,554.20
2022-12-28T07:18:45.557Z,540.60
2022-12-28T07:21:15.104Z,545.30
2022-12-28T07:23:42.696Z,540.90
2022-12-28T07:26:15.913Z,545.20
2022-12-28T07:28:44.920Z,552.90
2022-12-28T07:31:14.227Z,555.00
2022-12-28T07:53:31.359Z,548.90
2022-12-28T07:58:25.192Z,545.90
2022-12-28T08:00:52.137Z,549.20
2022-12-28T08:03:20.128Z,553.75
2022-12-28T08:08:13.365Z,568.75
2022-12-28T08:13:06.785Z,561.15
2022-12-28T08:15:33.511Z,567.90
2022-12-28T08:18:00.199Z,573.60
2022-12-28T08:22:53.852Z,573.20
2022-12-28T08:25:20.503Z,573.90
2022-12-28T08:30:14.223Z,575.00
2022-12-28T08:42:27.773Z,592.85
2022-12-28T08:49:48.709Z,586.80
2022-12-28T08:52:15.375Z,591.40
2022-12-28T08:54:42.019Z,593.00
2022-12-28T08:57:08.604Z,597.75
2022-12-28T08:59:35.212Z,594.40
2022-12-28T09:02:02.011Z,591.80
2022-12-28T09:04:28.859Z,585.95
2022-12-28T09:06:55.516Z,602.40
2022-12-28T09:09:22.211Z,599.10
2022-12-28T09:14:22.687Z,600.30
2022-12-28T09:16:52.234Z,606.00
2022-12-28T09:19:19.019Z,620.00
2022-12-28T09:21:48.841Z,628.30
2022-12-28T09:24:15.539Z,635.10
2022-12-28T09:26:42.206Z,664.30
2022-12-28T09:29:12.561Z,662.10
2022-12-28T09:36:58.140Z,684.70
2022-12-28T09:47:23.141Z,693.60
2022-12-28T09:50:11.495Z,687.45
2022-12-28T09:52:50.584Z,685.40
2022-12-28T09:55:19.065Z,673.30
2022-12-28T09:57:49.364Z,665.20
2022-12-28T10:07:49.215Z,676.05
2022-12-28T10:10:18.296Z,678.55
2022-12-28T10:15:13.906Z,682.60
2022-12-28T10:22:48.028Z,662.30
2022-12-28T10:25:20.853Z,662.80
2022-12-28T10:30:27.115Z,649.20
2022-12-28T10:33:02.549Z,646.50
2022-12-28T10:35:43.092Z,653.10
2022-12-28T10:52:02.793Z,618.10
2022-12-28T10:59:27.841Z,621.30
2022-12-28T11:09:37.449Z,677.20
2022-12-28T11:14:44.919Z,717.30
2022-12-28T11:17:23.925Z,747.80
2022-12-28T11:27:19.529Z,915.50
2022-12-28T11:29:51.866Z,927.72
2022-12-28T11:32:24.051Z,928.77
2022-12-28T11:34:52.425Z,932.90
2022-12-28T11:37:19.244Z,933.83
2022-12-28T11:39:50.574Z,918.30
2022-12-28T11:42:40.983Z,906.15
2022-12-28T11:45:35.415Z,883.30
2022-12-28T11:50:52.064Z,859.40
2022-12-28T11:53:43.368Z,843.50
2022-12-28T11:58:40.820Z,836.10
2022-12-28T12:01:30.873Z,828.40
2022-12-28T12:03:57.524Z,823.00
2022-12-28T12:06:42.715Z,823.10
2022-12-28T12:09:21.625Z,817.10
2022-12-28T12:11:51.036Z,815.55
2022-12-28T12:14:36.444Z,816.20
2022-12-28T12:17:10.889Z,818.30
2022-12-28T12:19:40.096Z,820.80
2022-12-28T12:22:31.866Z,815.40
2022-12-28T12:25:06.262Z,815.65
2022-12-28T12:27:42.699Z,817.40
2022-12-28T12:35:17.714Z,820.60
2022-12-28T12:37:56.622Z,814.10
2022-12-28T12:40:43.964Z,811.80
2022-12-28T12:43:18.290Z,818.95
2022-12-28T12:45:53.676Z,819.30
2022-12-28T12:54:01.365Z,820.90
2022-12-28T12:56:45.765Z,826.60
2022-12-28T13:01:47.972Z,829.10
2022-12-28T13:04:22.434Z,825.10
2022-12-28T13:06:54.571Z,829.00
2022-12-28T13:09:23.031Z,830.40
2022-12-28T13:11:50.749Z,832.40
2022-12-28T13:14:22.805Z,830.45
2022-12-28T13:16:54.545Z,827.80
2022-12-28T13:19:26.842Z,828.15
2022-12-28T13:21:53.915Z,829.70
2022-12-28T13:24:29.955Z,834.70
2022-12-28T13:26:58.890Z,839.10
2022-12-28T13:29:35.846Z,845.55
2022-12-28T13:32:02.553Z,847.35
2022-12-28T13:34:34.958Z,853.50
2022-12-28T13:37:07.391Z,858.80
2022-12-28T13:39:41.571Z,862.40
2022-12-28T13:42:25.641Z,866.10
2022-12-28T13:45:03.062Z,863.90
2022-12-28T13:47:40.381Z,861.25
2022-12-28T13:50:18.990Z,865.55
2022-12-28T13:53:17.596Z,867.90
2022-12-28T13:55:54.154Z,841.90
2022-12-28T14:01:17.604Z,838.60
2022-12-28T14:03:46.424Z,830.90
2022-12-28T14:08:42.511Z,831.00
2022-12-28T14:11:09.948Z,825.10
2022-12-28T14:18:33.570Z,822.50
2022-12-28T14:23:33.873Z,828.90
2022-12-28T14:26:04.485Z,838.30
2022-12-28T14:28:50.434Z,828.65
2022-12-28T14:31:22.346Z,825.20
2022-12-28T14:34:00.857Z,823.90
2022-12-28T14:36:35.240Z,822.20
2022-12-28T14:39:05.222Z,813.40
2022-12-28T14:41:40.260Z,813.75
2022-12-28T14:44:21.589Z,801.65
2022-12-28T14:46:52.428Z,802.00
2022-12-28T14:49:28.259Z,798.20
2022-12-28T14:51:56.436Z,791.85
2022-12-28T14:54:27.942Z,789.20
2022-12-28T14:57:05.223Z,793.05
2022-12-28T14:59:38.306Z,793.40
2022-12-28T15:02:05.686Z,788.25
2022-12-28T15:04:36.877Z,782.55
2022-12-28T15:07:05.220Z,782.90
2022-12-28T15:09:32.001Z,785.90
2022-12-28T15:12:11.403Z,768.90
2022-12-28T15:14:38.835Z,764.72
2022-12-28T15:17:05.869Z,770.15
2022-12-28T15:19:33.490Z,772.65
2022-12-28T15:22:00.167Z,761.30
2022-12-28T15:24:33.525Z,758.80
2022-12-28T15:27:01.062Z,755.53
2022-12-28T15:29:55.705Z,745.90
2022-12-28T15:32:14.376Z,747.88
2022-12-28T15:34:41.507Z,739.47
2022-12-28T15:37:08.165Z,740.53
2022-12-28T15:39:34.823Z,729.83
2022-12-28T15:42:01.502Z,728.63
2022-12-28T15:44:28.119Z,736.97
2022-12-28T15:46:54.940Z,731.88
2022-12-28T15:49:21.716Z,734.85
2022-12-28T15:51:48.332Z,727.72
2022-12-28T15:54:15.066Z,745.45
2022-12-28T15:56:42.429Z,735.83
2022-12-28T15:59:14.245Z,729.85
2022-12-28T16:01:44.020Z,722.05
2022-12-28T16:04:11.363Z,724.92
2022-12-28T16:06:43.904Z,725.55
2022-12-28T16:09:11.266Z,723.78
2022-12-28T16:11:37.916Z,725.83
2022-12-28T16:14:06.617Z,726.17
2022-12-28T16:16:38.870Z,717.58
2022-12-28T16:19:06.944Z,719.60
2022-12-28T16:21:33.833Z,721.72
2022-12-28T16:24:00.642Z,711.60
2022-12-28T16:26:27.953Z,712.40
2022-12-28T16:28:54.670Z,714.77
2022-12-28T16:31:35.743Z,717.28
2022-12-28T16:34:11.621Z,708.35
2022-12-28T16:36:38.322Z,705.90
2022-12-28T16:39:08.261Z,700.25
2022-12-28T16:41:38.199Z,706.38
2022-12-28T16:44:09.168Z,702.08
2022-12-28T16:46:35.762Z,702.97
2022-12-28T16:49:02.755Z,701.10
2022-12-28T16:51:30.586Z,698.88
2022-12-28T16:53:57.578Z,703.70
2022-12-28T16:56:24.364Z,702.07
2022-12-28T17:01:18.951Z,697.30
2022-12-28T17:03:45.720Z,701.85
2022-12-28T17:06:14.280Z,699.83
2022-12-28T17:08:40.948Z,705.88
2022-12-28T17:11:09.832Z,700.83
2022-12-28T17:13:37.698Z,705.38
2022-12-28T17:16:05.903Z,701.47
2022-12-28T17:18:33.001Z,699.65
2022-12-28T17:21:06.320Z,697.38
2022-12-28T17:23:33.813Z,691.78
2022-12-28T17:26:00.431Z,698.37
2022-12-28T17:28:27.132Z,690.40
2022-12-28T17:31:07.217Z,689.92
2022-12-28T17:33:39.262Z,689.40
2022-12-28T17:36:06.829Z,689.60
2022-12-28T17:38:33.461Z,689.60
2022-12-28T17:41:00.149Z,691.90
2022-12-28T17:43:26.790Z,683.78
2022-12-28T17:45:53.466Z,685.90
2022-12-28T17:48:20.231Z,675.60
2022-12-28T17:50:47.119Z,679.37
2022-12-28T17:53:13.858Z,684.10
2022-12-28T17:55:40.592Z,677.60
2022-12-28T17:58:07.251Z,670.58
2022-12-28T18:00:34.050Z,660.53
2022-12-28T18:03:00.981Z,659.15
2022-12-28T18:05:30.089Z,653.75
2022-12-28T18:07:56.763Z,657.80
2022-12-28T18:10:23.382Z,656.35
2022-12-28T18:12:50.627Z,652.10
2022-12-28T18:15:17.486Z,655.30
2022-12-28T18:17:44.161Z,650.17
2022-12-28T18:20:10.865Z,639.05
2022-12-28T18:22:37.500Z,644.17
2022-12-28T18:25:05.906Z,637.95
2022-12-28T18:27:35.609Z,641.10
2022-12-28T18:30:02.430Z,634.60
2022-12-28T18:32:29.129Z,637.65
2022-12-28T18:34:55.746Z,633.05
2022-12-28T18:37:22.349Z,630.72
2022-12-28T18:39:49.019Z,634.30
2022-12-28T18:42:18.233Z,629.65
2022-12-28T18:44:47.635Z,631.55
2022-12-28T18:47:14.750Z,625.00
2022-12-28T18:49:46.912Z,626.65
2022-12-28T18:52:15.524Z,618.97
2022-12-28T18:54:42.629Z,630.90
2022-12-28T18:57:09.545Z,639.47
2022-12-28T18:59:36.659Z,628.23
2022-12-28T19:02:08.442Z,638.63
2022-12-28T19:04:37.757Z,630.70
2022-12-28T19:07:04.441Z,620.30
2022-12-28T19:09:31.059Z,629.00
2022-12-28T19:11:58.943Z,626.40
2022-12-28T19:14:25.769Z,631.90
2022-12-28T19:16:52.465Z,628.13
2022-12-28T19:19:20.317Z,620.72
2022-12-28T19:21:47.233Z,630.33
2022-12-28T19:24:18.723Z,620.53
2022-12-28T19:26:46.196Z,629.00
2022-12-28T19:29:14.191Z,617.78
2022-12-28T19:31:41.144Z,620.25
2022-12-28T19:34:07.995Z,624.47
2022-12-28T19:36:34.592Z,620.80
2022-12-28T19:39:01.184Z,615.88
2022-12-28T19:41:27.765Z,623.88
2022-12-28T19:43:54.783Z,617.63
2022-12-28T19:46:30.562Z,612.97
2022-12-28T19:48:58.430Z,612.05
2022-12-28T19:51:30.728Z,616.80
2022-12-28T19:53:59.311Z,613.40
2022-12-28T19:56:25.933Z,612.22
2022-12-28T19:58:55.265Z,613.53
2022-12-28T20:01:25.904Z,600.40
2022-12-28T20:03:54.246Z,605.63
2022-12-28T20:06:27.312Z,616.10
2022-12-28T20:08:57.629Z,604.35
2022-12-28T20:11:24.574Z,609.23
2022-12-28T20:13:53.704Z,606.33
2022-12-28T20:16:21.233Z,612.47
2022-12-28T20:18:49.945Z,598.90
2022-12-28T20:21:20.020Z,606.30
2022-12-28T20:23:50.656Z,603.85
2022-12-28T20:26:19.007Z,599.85
2022-12-28T20:28:45.964Z,592.63
2022-12-28T20:31:14.498Z,602.78
2022-12-28T20:33:42.324Z,597.53
2022-12-28T20:36:15.648Z,596.92
2022-12-28T20:38:42.664Z,603.53
2022-12-28T20:41:30.975Z,590.45
2022-12-28T20:43:58.843Z,596.50
2022-12-28T20:46:25.603Z,600.72
2022-12-28T20:48:52.393Z,595.88
2022-12-28T20:51:19.109Z,610.53
2022-12-28T20:53:45.764Z,601.10
2022-12-28T20:56:12.461Z,592.23
2022-12-28T20:58:39.704Z,595.70
2022-12-28T21:01:09.010Z,591.73
2022-12-28T21:03:36.131Z,603.25
2022-12-28T21:06:03.471Z,600.38
2022-12-28T21:08:31.032Z,595.85
2022-12-28T21:10:58.480Z,591.15
2022-12-28T21:13:25.458Z,585.83
2022-12-28T21:15:52.397Z,588.53
2022-12-28T21:18:19.670Z,598.70
2022-12-28T21:20:51.963Z,598.45
2022-12-28T21:23:18.633Z,595.05
2022-12-28T21:25:45.370Z,595.53
2022-12-28T21:28:12.162Z,598.70
2022-12-28T21:30:39.047Z,594.70
2022-12-28T21:33:05.905Z,605.55
2022-12-28T21:35:34.791Z,595.10
2022-12-28T21:38:01.963Z,599.63
2022-12-28T21:40:28.839Z,596.33
2022-12-28T21:42:55.497Z,606.45
2022-12-28T21:45:22.168Z,596.05
2022-12-28T21:47:48.868Z,599.50
2022-12-28T21:50:15.769Z,587.43
2022-12-28T21:52:42.458Z,593.70
2022-12-28T21:55:28.466Z,596.80
2022-12-28T21:57:55.081Z,582.45
2022-12-28T22:00:40.419Z,588.92
2022-12-28T22:03:25.861Z,597.25
2022-12-28T22:06:04.788Z,595.47
2022-12-28T22:08:50.756Z,585.22
2022-12-28T22:11:36.876Z,585.33
2022-12-28T22:14:04.859Z,582.40
2022-12-28T22:16:35.521Z,581.92
2022-12-28T22:19:04.192Z,588.23
2022-12-28T22:21:31.419Z,591.88
2022-12-28T22:23:58.162Z,594.13
2022-12-28T22:26:24.828Z,588.60
2022-12-28T22:28:51.494Z,589.00
2022-12-28T22:31:18.200Z,579.65
2022-12-28T22:33:45.002Z,583.73
2022-12-28T22:36:17.552Z,587.33
2022-12-28T22:38:44.794Z,586.53
2022-12-28T22:41:11.478Z,579.45
2022-12-28T22:43:38.246Z,572.33
2022-12-28T22:46:10.255Z,572.97
2022-12-28T22:48:37.439Z,568.75
2022-12-28T22:51:06.878Z,575.35
2022-12-28T22:53:34.551Z,574.05
2022-12-28T22:56:03.495Z,577.85
2022-12-28T22:58:30.479Z,574.67
2022-12-28T23:01:13.201Z,584.70
2022-12-28T23:03:42.515Z,583.47
2022-12-28T23:06:11.178Z,593.53
2022-12-28T23:08:37.849Z,583.20
2022-12-28T23:11:26.355Z,581.67
2022-12-28T23:13:52.979Z,587.50
2022-12-28T23:16:19.603Z,591.40
2022-12-28T23:19:04.990Z,590.70
2022-12-28T23:21:50.469Z,593.03
2022-12-28T23:24:35.777Z,598.25
2022-12-28T23:27:20.720Z,599.03
2022-12-28T23:29:47.329Z,597.07
2022-12-28T23:32:14.030Z,592.85
2022-12-28T23:34:40.668Z,606.08
2022-12-28T23:37:07.496Z,599.40
2022-12-28T23:39:34.137Z,599.88
2022-12-28T23:42:00.727Z,592.73
2022-12-28T23:44:27.527Z,603.00
2022-12-28T23:46:58.867Z,600.53
2022-12-28T23:49:26.353Z,595.23
2022-12-28T23:51:53.141Z,592.60
2022-12-28T23:54:20.455Z,600.38
2022-12-28T23:56:48.754Z,598.97
2022-12-28T23:59:16.152Z,600.35
